Time;durP1;ratioP1;P1;durP2;ratioP2;P2;SDS_P1;SDS_P2;PMS_P1;PMS_P2;Temp;Humidity;BMP_temperature;BMP_pressure;BME280_temperature;BME280_humidity;BME280_pressure;Samples;Min_cycle;Max_cycle;Signal;HPM_P1;HPM_P2
2022/01/16 00:00:48;;;;;;;11.40;8.87;;;;;;;4.71;52.81;100448.84;5049813;28;20232;-59
2022/01/16 00:06:00;;;;;;;14.40;8.63;;;;;;;4.70;52.92;100465.78;5049957;28;20257;-58
2022/01/16 00:08:29;;;;;;;12.33;8.40;;;;;;;4.67;53.09;100459.66;5049921;28;20189;-58
2022/01/16 00:10:56;;;;;;;11.77;8.80;;;;;;;4.67;52.73;100467.28;5049969;28;20205;-58
2022/01/16 00:13:23;;;;;;;11.83;9.13;;;;;;;4.65;52.81;100468.88;5059425;28;20204;-59
2022/01/16 00:15:50;;;;;;;12.73;8.50;;;;;;;4.43;53.33;100441.38;5069849;28;20201;-59
2022/01/16 00:18:22;;;;;;;11.70;8.63;;;;;;;4.61;53.31;100482.25;5070149;28;20194;-59
2022/01/16 00:20:50;;;;;;;12.43;9.67;;;;;;;4.62;53.67;100486.53;5070164;28;20221;-59
2022/01/16 00:23:24;;;;;;;12.10;9.07;;;;;;;4.64;52.71;100511.25;5067778;28;20661;-59
2022/01/16 00:25:54;;;;;;;11.17;8.23;;;;;;;4.59;53.75;100538.13;5068071;28;20196;-58
2022/01/16 00:28:21;;;;;;;10.97;8.57;;;;;;;4.58;53.45;100549.13;5053679;28;20626;-58
2022/01/16 00:30:49;;;;;;;16.83;10.23;;;;;;;4.58;53.87;100571.16;5053602;28;20275;-59
2022/01/16 00:33:16;;;;;;;15.43;9.10;;;;;;;4.55;53.95;100606.59;5053699;28;20193;-58
2022/01/16 00:35:43;;;;;;;11.37;8.60;;;;;;;4.52;53.82;100601.31;5053612;28;20202;-59
2022/01/16 00:38:10;;;;;;;11.90;9.07;;;;;;;4.51;54.18;100566.47;5053996;28;20284;-58
2022/01/16 00:40:37;;;;;;;13.10;8.77;;;;;;;4.49;52.66;100499.38;5053297;28;20208;-59
2022/01/16 00:43:06;;;;;;;14.00;8.70;;;;;;;4.52;53.78;100462.25;5053570;28;20275;-59
2022/01/16 00:45:34;;;;;;;12.10;8.80;;;;;;;4.43;53.97;100405.75;5053288;28;20192;-59
2022/01/16 00:48:01;;;;;;;11.77;9.23;;;;;;;4.43;53.42;100341.28;5053093;28;20191;-59
2022/01/16 00:50:28;;;;;;;12.17;8.60;;;;;;;4.43;53.20;100337.06;5053153;28;20558;-59
2022/01/16 00:52:55;;;;;;;14.73;8.67;;;;;;;4.39;53.77;100336.81;5053578;28;20183;-59
2022/01/16 00:55:22;;;;;;;10.17;8.17;;;;;;;4.42;53.51;100359.91;5053413;28;20283;-58
2022/01/16 00:57:49;;;;;;;13.80;8.87;;;;;;;4.41;52.74;100353.91;5053145;28;20189;-58
2022/01/16 01:00:17;;;;;;;11.50;8.10;;;;;;;4.39;52.96;100373.31;5053037;28;20213;-58
2022/01/16 01:02:45;;;;;;;9.77;7.90;;;;;;;4.40;53.72;100404.69;5052953;28;20690;-59
2022/01/16 01:05:13;;;;;;;11.60;8.30;;;;;;;4.38;52.97;100427.53;5053261;28;20286;-60
2022/01/16 01:07:40;;;;;;;11.27;8.10;;;;;;;4.38;52.69;100450.44;5053359;28;20273;-59
2022/01/16 01:10:08;;;;;;;12.43;7.53;;;;;;;4.40;52.50;100466.66;5052810;28;20235;-59
2022/01/16 01:12:52;;;;;;;12.27;8.37;;;;;;;4.29;52.28;100423.59;5053209;28;20191;-59
2022/01/16 01:15:22;;;;;;;8.77;7.20;;;;;;;4.43;52.73;100453.22;5052779;28;20192;-58
2022/01/16 01:17:49;;;;;;;10.67;7.20;;;;;;;4.47;51.80;100465.34;5052780;28;20199;-58
2022/01/16 01:20:19;;;;;;;12.27;8.03;;;;;;;4.48;52.06;100461.97;5052900;28;20303;-58
2022/01/16 01:22:47;;;;;;;10.23;7.50;;;;;;;4.46;52.43;100449.19;5054154;28;20196;-58
2022/01/16 01:25:14;;;;;;;10.37;7.50;;;;;;;4.50;51.99;100446.03;5073034;28;20202;-59
2022/01/16 01:27:43;;;;;;;12.70;8.27;;;;;;;4.46;51.88;100459.34;5072604;28;20235;-58
2022/01/16 01:30:12;;;;;;;11.83;7.63;;;;;;;4.51;51.42;100490.13;5072940;28;20206;-59
2022/01/16 01:32:43;;;;;;;8.50;7.03;;;;;;;4.49;52.02;100484.09;5071866;28;20284;-58
2022/01/16 01:35:12;;;;;;;11.20;7.90;;;;;;;4.50;52.14;100480.78;5072350;28;20637;-58
2022/01/16 01:37:40;;;;;;;10.03;7.47;;;;;;;4.48;52.14;100482.31;5072368;28;20183;-58
2022/01/16 01:40:10;;;;;;;10.00;7.33;;;;;;;4.45;51.86;100494.91;5072141;28;20593;-59
2022/01/16 01:42:44;;;;;;;12.87;7.77;;;;;;;4.46;51.95;100501.72;5072786;28;20189;-58
2022/01/16 01:51:05;;;;;;;11.90;7.60;;;;;;;4.41;52.15;100501.47;5072350;28;20176;-59
2022/01/16 01:53:32;;;;;;;9.93;7.23;;;;;;;4.43;51.98;100516.81;5072143;28;20234;-59
2022/01/16 01:55:59;;;;;;;11.63;8.00;;;;;;;4.41;52.58;100513.31;5072248;28;20574;-58
2022/01/16 01:58:26;;;;;;;9.50;7.20;;;;;;;4.37;52.49;100506.31;5072198;28;20298;-58
2022/01/16 02:00:53;;;;;;;11.27;7.37;;;;;;;4.38;52.39;100510.59;5072128;28;20324;-58
2022/01/16 02:03:27;;;;;;;9.30;7.17;;;;;;;4.34;52.61;100509.53;5071972;28;20192;-58
2022/01/16 02:05:54;;;;;;;12.70;7.80;;;;;;;4.34;52.41;100514.63;5071961;28;20276;-58
2022/01/16 02:08:21;;;;;;;11.73;8.93;;;;;;;4.32;53.20;100516.22;5072053;28;20181;-59
2022/01/16 02:10:48;;;;;;;9.90;7.57;;;;;;;4.26;52.85;100520.94;5057971;28;20628;-60
2022/01/16 02:13:23;;;;;;;10.83;7.70;;;;;;;4.27;52.55;100510.00;5070887;28;20215;-58
2022/01/16 02:32:47;;;;;;;12.30;7.70;;;;;;;4.19;52.56;100518.84;5040442;28;20740;-58
2022/01/16 02:35:14;;;;;;;10.23;6.93;;;;;;;4.06;52.68;100502.03;5071382;28;20210;-59
2022/01/16 02:37:41;;;;;;;10.13;7.37;;;;;;;4.07;52.88;100508.84;5071556;28;20192;-58
2022/01/16 02:40:17;;;;;;;10.57;7.10;;;;;;;4.07;53.31;100501.22;5071293;28;20334;-60
2022/01/16 02:42:49;;;;;;;11.57;7.70;;;;;;;4.08;53.13;100508.06;5071231;28;20612;-58
2022/01/16 02:45:28;;;;;;;10.97;7.23;;;;;;;4.06;53.03;100504.56;5070927;28;20206;-59
2022/01/16 02:47:55;;;;;;;9.60;7.50;;;;;;;4.07;52.58;100497.78;5071125;28;20658;-59
2022/01/16 02:50:23;;;;;;;10.37;7.40;;;;;;;4.07;52.38;100500.34;5070991;28;20189;-59
2022/01/16 02:52:50;;;;;;;11.63;8.23;;;;;;;4.07;52.37;100496.13;5071038;28;20201;-58
2022/01/16 02:55:20;;;;;;;9.77;7.43;;;;;;;4.01;53.16;100493.22;5070872;28;20197;-59
2022/01/16 02:57:47;;;;;;;10.70;7.97;;;;;;;4.08;52.74;100491.94;5070972;28;20192;-58
2022/01/16 03:00:14;;;;;;;9.97;7.60;;;;;;;4.01;52.10;100485.59;5070764;28;20694;-58
2022/01/16 03:02:41;;;;;;;10.83;8.07;;;;;;;4.05;52.49;100494.28;5071019;28;20188;-58
2022/01/16 03:05:09;;;;;;;11.30;8.13;;;;;;;3.99;52.93;100489.72;5070992;28;20191;-59
2022/01/16 03:07:37;;;;;;;11.07;7.83;;;;;;;4.00;52.94;100485.53;5070497;28;20574;-60
2022/01/16 03:10:23;;;;;;;10.70;7.73;;;;;;;3.95;53.08;100480.19;5070981;28;20280;-59
2022/01/16 03:12:52;;;;;;;12.40;7.50;;;;;;;3.88;52.85;100480.59;5070997;28;20257;-59
2022/01/16 03:15:19;;;;;;;12.43;8.93;;;;;;;3.89;52.98;100481.47;5070728;28;20574;-59
2022/01/16 03:23:19;;;;;;;13.77;8.80;;;;;;;3.58;54.07;100443.22;5070536;28;20205;-58
2022/01/16 03:25:46;;;;;;;10.77;7.63;;;;;;;3.64;53.78;100443.59;5070082;28;20586;-58
2022/01/16 03:28:15;;;;;;;10.97;8.03;;;;;;;3.73;54.29;100502.59;5070165;28;20306;-59
2022/01/16 03:30:42;;;;;;;11.47;8.17;;;;;;;3.72;54.12;100494.88;5070414;28;20197;-58
2022/01/16 03:33:10;;;;;;;10.70;8.20;;;;;;;3.73;54.36;100499.16;5077636;28;20191;-59
2022/01/16 03:35:37;;;;;;;13.90;8.43;;;;;;;3.69;54.46;100510.81;5079680;28;20211;-59
2022/01/16 03:38:05;;;;;;;11.03;8.53;;;;;;;3.72;53.90;100503.38;5078254;28;20261;-59
2022/01/16 03:40:32;;;;;;;15.77;8.80;;;;;;;3.72;53.90;100502.50;5073756;28;20261;-59
2022/01/16 03:43:09;;;;;;;11.80;8.70;;;;;;;3.70;53.80;100517.66;5079763;28;20572;-59
2022/01/16 03:45:37;;;;;;;13.30;8.10;;;;;;;3.68;53.63;100521.75;5078564;28;20191;-59
2022/01/16 03:48:05;;;;;;;12.33;7.57;;;;;;;3.66;53.53;100522.44;5077775;28;20183;-59
2022/01/16 03:50:32;;;;;;;13.40;7.77;;;;;;;3.65;53.57;100525.78;5079474;28;20176;-59
2022/01/16 03:52:58;;;;;;;14.20;8.10;;;;;;;3.59;53.91;100523.75;5077323;28;20189;-60
2022/01/16 03:55:25;;;;;;;12.17;8.20;;;;;;;3.63;53.84;100530.78;5075100;28;20663;-59
2022/01/16 03:57:52;;;;;;;10.33;7.77;;;;;;;3.62;53.56;100523.94;5078349;28;20186;-59
2022/01/16 04:00:19;;;;;;;13.63;8.80;;;;;;;3.67;53.60;100540.34;5079843;28;20263;-59
2022/01/16 04:02:48;;;;;;;11.30;8.40;;;;;;;3.64;53.45;100541.81;5072064;28;20191;-59
2022/01/16 04:05:15;;;;;;;10.10;7.13;;;;;;;3.59;53.50;100541.56;5070057;28;20198;-58
2022/01/16 04:07:42;;;;;;;11.67;7.47;;;;;;;3.57;53.78;100538.06;5070023;28;20192;-59
2022/01/16 04:10:10;;;;;;;10.43;7.70;;;;;;;3.58;53.81;100540.66;5069922;28;20670;-59
2022/01/16 04:12:39;;;;;;;11.13;7.67;;;;;;;3.51;53.61;100546.19;5068437;28;20231;-59
2022/01/16 04:17:53;;;;;;;9.77;7.37;;;;;;;3.51;53.73;100545.28;5050022;28;20238;-59
2022/01/16 04:20:20;;;;;;;10.73;8.03;;;;;;;3.54;53.31;100548.88;5049845;28;20751;-58
2022/01/16 04:22:47;;;;;;;10.80;7.50;;;;;;;3.53;53.23;100551.34;5058923;28;20192;-59
2022/01/16 04:25:14;;;;;;;10.30;7.53;;;;;;;3.52;53.41;100545.38;5070230;28;20192;-59
2022/01/16 04:27:41;;;;;;;9.17;7.10;;;;;;;3.55;53.36;100544.69;5069752;28;20736;-59
2022/01/16 04:30:09;;;;;;;11.63;7.10;;;;;;;3.43;53.45;100538.88;5070124;28;20555;-59
2022/01/16 04:32:36;;;;;;;12.57;7.83;;;;;;;3.31;53.29;100512.72;5070062;28;20193;-59
2022/01/16 04:35:05;;;;;;;11.80;7.43;;;;;;;3.52;53.14;100552.09;5069287;28;20188;-59
2022/01/16 04:37:33;;;;;;;11.83;7.13;;;;;;;3.51;53.04;100558.88;5072580;28;20181;-59
2022/01/16 04:40:01;;;;;;;11.97;7.67;;;;;;;3.47;53.41;100563.66;5069734;28;20271;-59
2022/01/16 04:45:13;;;;;;;8.73;6.73;;;;;;;3.47;53.43;100553.50;5069803;28;20190;-59
2022/01/16 04:47:41;;;;;;;9.53;7.03;;;;;;;3.40;53.76;100553.91;5069597;28;20543;-58
2022/01/16 04:50:12;;;;;;;9.47;7.30;;;;;;;3.43;53.50;100559.19;5067149;28;20203;-59
2022/01/16 04:52:40;;;;;;;10.83;7.30;;;;;;;3.37;53.57;100556.28;5050263;28;20254;-59
2022/01/16 04:55:08;;;;;;;11.43;7.20;;;;;;;3.39;54.09;100542.88;5049510;28;20202;-59
2022/01/16 04:57:36;;;;;;;11.50;7.33;;;;;;;3.35;54.20;100540.91;5049605;28;20292;-60
2022/01/16 05:00:06;;;;;;;11.47;7.70;;;;;;;3.34;54.46;100556.97;5049683;28;20196;-59
2022/01/16 05:02:33;;;;;;;9.70;7.50;;;;;;;3.25;54.58;100551.31;5049478;28;20227;-59
2022/01/16 05:05:00;;;;;;;10.87;7.20;;;;;;;3.21;54.92;100549.38;5049446;28;20200;-59
2022/01/16 05:07:28;;;;;;;9.87;7.20;;;;;;;3.20;55.43;100554.34;5055154;28;20196;-59
2022/01/16 05:09:55;;;;;;;12.57;8.27;;;;;;;3.20;55.22;100564.50;5072343;28;20205;-59
2022/01/16 05:12:31;;;;;;;11.63;7.17;;;;;;;3.16;55.37;100558.34;5072942;28;20324;-60
2022/01/16 05:17:42;;;;;;;12.73;8.83;;;;;;;3.16;55.11;100560.03;5072867;28;20195;-59
2022/01/16 05:20:10;;;;;;;11.80;8.63;;;;;;;3.14;55.26;100562.47;5072656;28;20198;-59
2022/01/16 05:22:38;;;;;;;12.80;9.43;;;;;;;3.12;55.13;100553.00;5072022;28;20228;-59
2022/01/16 05:25:08;;;;;;;13.77;9.40;;;;;;;3.04;55.41;100562.69;5072566;28;20203;-59
2022/01/16 05:27:35;;;;;;;13.43;8.93;;;;;;;2.96;55.86;100552.06;5072297;28;20231;-60
2022/01/16 05:30:02;;;;;;;13.73;9.43;;;;;;;2.94;56.01;100555.25;5072576;28;20274;-59
2022/01/16 05:32:29;;;;;;;14.37;9.43;;;;;;;2.91;55.95;100563.56;5072635;28;20278;-59
2022/01/16 05:34:56;;;;;;;14.27;8.67;;;;;;;2.94;55.43;100547.63;5072485;28;20195;-59
2022/01/16 05:37:23;;;;;;;13.60;8.67;;;;;;;2.88;55.61;100565.03;5072548;28;20224;-59
2022/01/16 05:39:51;;;;;;;16.63;9.07;;;;;;;2.92;55.58;100564.44;5072298;28;20192;-58
2022/01/16 05:42:18;;;;;;;10.87;8.17;;;;;;;2.90;55.86;100561.81;5072715;28;20223;-59
2022/01/16 05:44:45;;;;;;;11.40;8.47;;;;;;;2.91;56.31;100560.16;5059846;28;20215;-58
2022/01/16 05:47:12;;;;;;;12.70;8.43;;;;;;;2.91;56.13;100573.69;5052201;28;20193;-59
2022/01/16 05:49:42;;;;;;;15.67;8.60;;;;;;;2.91;56.24;100571.16;5052454;28;20254;-59
2022/01/16 05:52:09;;;;;;;11.07;7.87;;;;;;;2.91;56.48;100575.38;5052071;28;20188;-58
2022/01/16 05:54:36;;;;;;;13.60;8.83;;;;;;;2.93;56.50;100583.97;5052217;28;20199;-58
2022/01/16 05:57:05;;;;;;;12.10;8.80;;;;;;;2.90;56.33;100587.19;5052159;28;20288;-58
2022/01/16 05:59:32;;;;;;;12.97;8.70;;;;;;;2.88;56.42;100592.94;5051880;28;20194;-58
2022/01/16 06:01:59;;;;;;;13.57;9.65;;;;;;;2.93;56.32;100589.94;5052994;28;20942;-56
2022/01/16 06:04:26;;;;;;;12.80;8.97;;;;;;;3.01;56.32;100590.41;5072085;28;20279;-56
2022/01/16 06:06:53;;;;;;;13.23;8.87;;;;;;;2.87;56.55;100563.25;5071831;28;20675;-56
2022/01/16 06:09:20;;;;;;;13.17;8.70;;;;;;;3.02;56.49;100591.28;5052555;28;20192;-56
2022/01/16 06:11:47;;;;;;;12.23;8.30;;;;;;;3.03;56.63;100596.44;5071691;28;20191;-56
2022/01/16 06:14:15;;;;;;;12.83;8.13;;;;;;;3.01;56.99;100605.63;5071729;28;20198;-56
2022/01/16 06:16:42;;;;;;;16.88;11.32;;;;;;;3.10;57.37;100611.31;5071035;28;20500;-56
2022/01/16 06:19:09;;;;;;;15.73;9.93;;;;;;;3.15;56.42;100611.59;5071066;28;20196;-56
2022/01/16 06:21:35;;;;;;;13.77;8.90;;;;;;;3.10;56.35;100605.34;5071513;28;20220;-56
2022/01/16 06:24:03;;;;;;;14.80;9.90;;;;;;;3.18;56.35;100617.75;5071478;28;20298;-57
2022/01/16 06:26:31;;;;;;;12.87;8.67;;;;;;;3.17;57.15;100620.16;5071698;28;20226;-56
2022/01/16 06:28:59;;;;;;;11.97;9.27;;;;;;;3.20;57.22;100622.91;5071371;28;20227;-56
2022/01/16 06:31:27;;;;;;;15.47;9.23;;;;;;;3.20;57.30;100622.91;5071577;28;20254;-56
2022/01/16 06:33:55;;;;;;;14.37;8.83;;;;;;;3.23;57.27;100640.88;5071425;28;20196;-56
2022/01/16 06:36:22;;;;;;;12.87;9.07;;;;;;;3.31;57.51;100645.66;5071885;28;20191;-56
2022/01/16 06:38:49;;;;;;;13.77;9.77;;;;;;;3.35;57.79;100655.22;5071915;28;20192;-56
2022/01/16 06:41:16;;;;;;;13.27;9.83;;;;;;;3.43;57.62;100661.66;5071535;28;20316;-57
2022/01/16 06:43:42;;;;;;;13.67;9.20;;;;;;;3.50;57.19;100660.38;5071207;28;20304;-57
2022/01/16 06:46:09;;;;;;;15.33;9.10;;;;;;;3.55;57.29;100659.00;5071366;28;20202;-57
2022/01/16 06:48:40;;;;;;;14.50;9.47;;;;;;;3.39;56.88;100614.00;5071339;28;20196;-57
2022/01/16 06:51:11;;;;;;;14.47;9.83;;;;;;;3.73;57.13;100661.81;5070847;28;20219;-57
2022/01/16 06:53:37;;;;;;;13.77;9.33;;;;;;;3.72;57.00;100662.59;5062821;28;20200;-57
2022/01/16 06:56:05;;;;;;;14.10;9.13;;;;;;;3.71;57.46;100653.22;5051142;28;20197;-57
2022/01/16 06:58:32;;;;;;;14.77;10.23;;;;;;;3.73;57.82;100650.00;5050843;28;20194;-58
2022/01/16 07:00:59;;;;;;;12.10;9.17;;;;;;;3.80;57.90;100658.84;5052080;28;20672;-57
2022/01/16 07:03:26;;;;;;;14.10;10.00;;;;;;;4.01;57.53;100653.41;5070246;28;20191;-57
2022/01/16 07:05:54;;;;;;;16.27;9.60;;;;;;;5.20;53.68;100663.78;5070053;28;20184;-57
2022/01/16 07:08:23;;;;;;;15.57;9.97;;;;;;;5.90;51.46;100674.56;5070091;28;20682;-57
2022/01/16 07:10:51;;;;;;;15.87;10.00;;;;;;;5.77;51.25;100684.84;5070209;28;20931;-57
2022/01/16 07:13:18;;;;;;;13.03;9.40;;;;;;;5.33;52.22;100694.25;5069589;28;20198;-57
2022/01/16 07:15:45;;;;;;;15.23;10.67;;;;;;;4.96;52.98;100698.94;5069905;28;20222;-56
2022/01/16 07:18:11;;;;;;;14.20;10.10;;;;;;;4.76;53.82;100700.34;5069202;28;20181;-57
2022/01/16 07:20:38;;;;;;;15.20;10.20;;;;;;;4.61;55.08;100702.00;5070110;28;20184;-57
2022/01/16 07:23:07;;;;;;;14.93;10.80;;;;;;;4.55;55.15;100714.38;5069394;28;20215;-56
2022/01/16 07:25:34;;;;;;;12.50;9.87;;;;;;;4.54;55.72;100704.06;5069385;28;20195;-56
2022/01/16 07:28:00;;;;;;;18.40;11.90;;;;;;;4.44;56.66;100686.50;5069781;28;20722;-56
2022/01/16 07:30:29;;;;;;;17.73;12.13;;;;;;;4.28;57.17;100697.47;5068523;28;20232;-57
2022/01/16 07:32:56;;;;;;;22.97;13.40;;;;;;;4.24;57.90;100692.94;5067066;28;20188;-57
2022/01/16 07:35:23;;;;;;;19.53;13.13;;;;;;;4.25;58.20;100704.91;5070501;28;20274;-56
2022/01/16 07:37:51;;;;;;;18.17;13.40;;;;;;;4.12;58.51;100693.09;5070349;28;20196;-56
2022/01/16 07:40:20;;;;;;;17.80;12.70;;;;;;;4.18;59.10;100706.19;5070357;28;20196;-56
2022/01/16 07:42:47;;;;;;;18.13;13.03;;;;;;;4.17;58.81;100709.50;5070293;28;20214;-56
2022/01/16 07:45:14;;;;;;;17.83;13.83;;;;;;;4.03;59.61;100712.91;5070224;28;20199;-56
2022/01/16 07:47:41;;;;;;;17.70;13.67;;;;;;;3.90;60.28;100672.22;5070223;28;20181;-56
2022/01/16 07:50:09;;;;;;;19.27;13.80;;;;;;;4.14;59.70;100701.72;5070324;28;20191;-56
2022/01/16 07:52:36;;;;;;;19.67;13.53;;;;;;;4.13;59.98;100710.13;5070021;28;20187;-56
2022/01/16 07:55:03;;;;;;;22.57;13.40;;;;;;;4.07;60.37;100709.72;5069972;28;20196;-56
2022/01/16 07:57:32;;;;;;;20.97;14.53;;;;;;;4.00;60.58;100719.44;5069786;28;20197;-56
2022/01/16 07:59:58;;;;;;;19.60;14.20;;;;;;;4.02;61.07;100720.41;5070254;28;20279;-56
2022/01/16 08:02:25;;;;;;;25.00;13.93;;;;;;;4.09;60.56;100714.94;5070142;28;20227;-56
2022/01/16 08:04:52;;;;;;;18.90;13.40;;;;;;;4.10;60.83;100699.75;5069298;28;20196;-56
2022/01/16 08:07:19;;;;;;;19.23;13.50;;;;;;;4.24;60.89;100713.31;5066640;28;20302;-56
2022/01/16 08:09:46;;;;;;;20.20;14.03;;;;;;;4.30;60.95;100707.72;5069589;28;20192;-56
2022/01/16 08:12:14;;;;;;;21.20;12.60;;;;;;;4.42;60.17;100713.53;5069418;28;20632;-56
2022/01/16 08:14:42;;;;;;;18.70;13.17;;;;;;;4.44;59.72;100696.69;5067013;28;20192;-56
2022/01/16 08:17:09;;;;;;;18.37;12.47;;;;;;;4.50;59.60;100690.31;5069248;28;20283;-56
2022/01/16 08:19:36;;;;;;;18.97;12.50;;;;;;;4.48;59.64;100691.88;5068915;28;20198;-56
2022/01/16 08:22:03;;;;;;;18.73;13.30;;;;;;;4.47;59.89;100699.44;5068839;28;20201;-57
2022/01/16 08:24:30;;;;;;;18.50;13.03;;;;;;;4.47;59.32;100679.06;5068856;28;20195;-55
2022/01/16 08:26:57;;;;;;;22.47;13.10;;;;;;;4.44;59.95;100696.69;5068950;28;20602;-56
2022/01/16 08:29:23;;;;;;;17.97;13.27;;;;;;;4.49;60.34;100697.84;5067279;28;20235;-56
2022/01/16 08:31:52;;;;;;;19.13;13.13;;;;;;;4.59;59.96;100692.50;5068935;28;20188;-56
2022/01/16 08:34:19;;;;;;;19.43;14.37;;;;;;;4.56;60.58;100692.34;5067656;28;20204;-56
2022/01/16 08:36:46;;;;;;;20.33;13.87;;;;;;;4.69;60.22;100692.25;5068877;28;20180;-57
2022/01/16 08:39:14;;;;;;;22.20;14.43;;;;;;;4.77;60.09;100691.03;5069100;28;20188;-56
2022/01/16 08:41:42;;;;;;;18.67;13.77;;;;;;;4.73;59.81;100692.53;5066855;28;20184;-56
2022/01/16 08:44:09;;;;;;;23.08;15.10;;;;;;;4.68;59.79;100687.94;5071581;28;20540;-56
2022/01/16 08:46:36;;;;;;;20.77;14.00;;;;;;;4.70;59.64;100694.00;5072172;28;20185;-55
2022/01/16 08:49:04;;;;;;;19.80;14.57;;;;;;;4.79;60.15;100679.28;5072968;28;20639;-56
2022/01/16 08:51:31;;;;;;;18.00;13.73;;;;;;;4.84;59.96;100680.41;5073206;28;20196;-56
2022/01/16 08:53:58;;;;;;;21.40;14.63;;;;;;;4.85;60.16;100687.28;5073271;28;20219;-55
2022/01/16 08:56:25;;;;;;;23.73;14.50;;;;;;;4.82;59.93;100656.53;5072692;28;20208;-56
2022/01/16 08:58:52;;;;;;;19.17;14.33;;;;;;;5.05;60.07;100680.78;5073148;28;20188;-56
2022/01/16 09:01:19;;;;;;;22.30;18.10;;;;;;;5.17;60.34;100679.78;5072172;28;20440;-57
2022/01/16 09:03:47;;;;;;;23.17;16.47;;;;;;;5.24;59.84;100684.44;5072699;28;20255;-56
2022/01/16 09:06:15;;;;;;;25.60;14.50;;;;;;;5.27;59.02;100678.66;5072689;28;20194;-56
2022/01/16 09:08:42;;;;;;;17.93;13.67;;;;;;;5.26;59.92;100674.34;5073146;28;20194;-56
2022/01/16 09:11:09;;;;;;;19.77;14.73;;;;;;;5.28;60.46;100668.53;5073118;28;20199;-58
2022/01/16 09:13:38;;;;;;;23.93;15.80;;;;;;;5.26;59.72;100667.56;5072977;28;20212;-59
2022/01/16 09:16:05;;;;;;;23.00;15.50;;;;;;;5.36;60.49;100669.81;5072824;28;20238;-59
2022/01/16 09:18:33;;;;;;;22.00;14.13;;;;;;;5.48;59.72;100663.66;5072637;28;20703;-59
2022/01/16 09:21:01;;;;;;;20.97;15.07;;;;;;;5.63;59.92;100659.41;5072842;28;20193;-60
2022/01/16 09:23:30;;;;;;;23.30;15.90;;;;;;;5.68;58.97;100663.06;5072864;28;20384;-59
2022/01/16 09:25:57;;;;;;;18.83;14.33;;;;;;;5.60;57.26;100662.66;5072693;28;20196;-60
2022/01/16 09:28:24;;;;;;;21.97;13.50;;;;;;;5.65;57.14;100653.59;5071916;28;20238;-56
2022/01/16 09:30:51;;;;;;;18.73;13.77;;;;;;;5.64;56.69;100650.94;5070830;28;20299;-57
2022/01/16 09:33:18;;;;;;;20.07;13.57;;;;;;;5.71;57.17;100656.44;5071072;28;20187;-57
2022/01/16 09:35:45;;;;;;;19.47;13.93;;;;;;;5.77;57.00;100651.69;5071171;28;20199;-56
2022/01/16 09:38:12;;;;;;;18.47;13.53;;;;;;;5.84;56.03;100643.59;5071198;28;20204;-57
2022/01/16 09:40:45;;;;;;;16.40;11.93;;;;;;;5.90;55.05;100651.59;5071544;28;20198;-56
2022/01/16 09:43:12;;;;;;;18.67;12.03;;;;;;;6.01;53.34;100641.97;5071634;28;20216;-56
2022/01/16 09:45:39;;;;;;;16.73;11.27;;;;;;;6.05;53.82;100641.31;5071795;28;20193;-57
2022/01/16 09:48:06;;;;;;;16.53;12.27;;;;;;;6.03;54.01;100632.69;5071985;28;20782;-56
2022/01/16 09:50:33;;;;;;;18.63;12.93;;;;;;;6.12;54.86;100634.84;5071808;28;20694;-56
2022/01/16 09:53:01;;;;;;;20.73;11.37;;;;;;;6.16;52.70;100612.13;5071720;28;20193;-57
2022/01/16 09:55:29;;;;;;;16.85;13.18;;;;;;;6.30;53.58;100621.38;5070432;28;20517;-56
2022/01/16 09:57:59;;;;;;;18.73;13.20;;;;;;;6.32;53.40;100624.84;5071749;28;20225;-56
2022/01/16 10:00:26;;;;;;;16.57;11.80;;;;;;;6.36;53.79;100613.13;5071799;28;20199;-56
2022/01/16 10:02:54;;;;;;;18.13;13.57;;;;;;;6.19;53.69;100585.88;5071334;28;20217;-57
2022/01/16 10:05:31;;;;;;;14.73;11.87;;;;;;;6.30;53.31;100608.59;5071339;28;20205;-58
2022/01/16 10:08:00;;;;;;;16.67;12.43;;;;;;;6.32;53.86;100618.88;5071838;28;20290;-57
2022/01/16 10:10:28;;;;;;;17.60;13.03;;;;;;;6.42;53.28;100608.34;5071528;28;20285;-57
2022/01/16 10:13:05;;;;;;;17.90;13.37;;;;;;;6.48;53.54;100595.91;5071544;28;20203;-59
2022/01/16 10:15:32;;;;;;;22.10;12.93;;;;;;;6.58;53.33;100610.88;5071501;28;20196;-59
2022/01/16 10:18:02;;;;;;;16.47;10.90;;;;;;;6.53;51.18;100597.88;5071549;28;20209;-59
2022/01/16 10:20:30;;;;;;;18.73;12.67;;;;;;;6.57;51.13;100598.00;5071526;28;20193;-59
2022/01/16 10:23:00;;;;;;;12.53;10.00;;;;;;;6.55;49.27;100603.06;5071151;28;20692;-59
2022/01/16 10:25:39;;;;;;;17.17;10.60;;;;;;;6.57;50.63;100603.09;5071236;28;20197;-60
2022/01/16 10:28:15;;;;;;;16.13;11.30;;;;;;;6.66;51.42;100586.59;5071565;28;20231;-61
2022/01/16 10:30:43;;;;;;;15.80;11.57;;;;;;;6.70;51.62;100590.16;5065374;28;20614;-60
2022/01/16 10:33:12;;;;;;;17.17;10.83;;;;;;;6.80;50.90;100588.13;5051423;28;20610;-59
2022/01/16 10:35:40;;;;;;;17.90;11.83;;;;;;;6.76;50.89;100577.69;5051359;28;20251;-59
2022/01/16 10:38:11;;;;;;;13.00;9.87;;;;;;;6.77;50.99;100582.88;5053987;28;20200;-59
2022/01/16 10:40:40;;;;;;;12.73;10.27;;;;;;;6.85;50.88;100580.69;5051340;28;20196;-59
2022/01/16 10:43:15;;;;;;;14.63;10.97;;;;;;;6.91;50.88;100568.22;5051383;28;20223;-60
2022/01/16 10:45:43;;;;;;;16.70;11.80;;;;;;;6.89;50.72;100557.94;5050931;28;20277;-61
2022/01/16 10:48:11;;;;;;;14.80;10.83;;;;;;;6.94;49.62;100559.03;5051045;28;20261;-57
2022/01/16 10:50:40;;;;;;;15.63;11.03;;;;;;;6.98;50.40;100557.47;5050510;28;20201;-59
2022/01/16 10:53:08;;;;;;;15.47;11.10;;;;;;;6.99;49.75;100546.47;5050638;28;20208;-57
2022/01/16 10:55:38;;;;;;;22.13;11.53;;;;;;;7.06;50.35;100539.13;5051177;28;20199;-58
2022/01/16 10:58:09;;;;;;;14.80;10.73;;;;;;;7.22;49.61;100540.75;5050853;28;20194;-57
2022/01/16 11:00:38;;;;;;;13.13;10.00;;;;;;;7.31;47.92;100541.16;5050946;28;20193;-58
2022/01/16 11:03:06;;;;;;;14.93;10.20;;;;;;;7.32;47.30;100542.03;5050638;28;20224;-58
2022/01/16 11:05:35;;;;;;;13.77;10.63;;;;;;;7.36;47.89;100544.78;5050666;28;20674;-57
2022/01/16 11:08:04;;;;;;;23.83;18.67;;;;;;;7.47;46.02;100537.63;5050838;28;20275;-58
2022/01/16 11:10:33;;;;;;;13.77;10.43;;;;;;;7.54;44.95;100539.63;5050527;28;20672;-57
2022/01/16 11:13:02;;;;;;;12.60;9.83;;;;;;;7.56;44.62;100535.47;5050551;28;20219;-56
2022/01/16 11:15:31;;;;;;;12.53;8.87;;;;;;;7.27;44.88;100497.50;5050851;28;20206;-56
2022/01/16 11:17:58;;;;;;;13.57;10.47;;;;;;;7.58;44.27;100541.53;5050340;28;20662;-57
2022/01/16 11:20:33;;;;;;;13.63;9.90;;;;;;;7.59;44.53;100533.91;5050052;28;20337;-57
2022/01/16 11:23:14;;;;;;;14.73;11.95;;;;;;;7.63;44.21;100533.28;5049677;28;20950;-57
2022/01/16 11:25:44;;;;;;;15.00;11.10;;;;;;;7.73;45.12;100525.19;5050238;28;20207;-59
2022/01/16 11:28:14;;;;;;;13.93;9.87;;;;;;;7.77;44.97;100533.00;5050063;28;20231;-57
2022/01/16 11:30:46;;;;;;;12.40;10.40;;;;;;;7.79;44.37;100526.25;5050371;28;20223;-56
2022/01/16 11:33:13;;;;;;;15.03;10.20;;;;;;;7.79;44.39;100516.03;5066722;28;20187;-57
2022/01/16 11:35:47;;;;;;;10.83;9.23;;;;;;;7.73;44.13;100527.75;5075576;28;20187;-57
2022/01/16 11:38:14;;;;;;;14.27;10.53;;;;;;;7.73;45.10;100519.19;5071990;28;20190;-56
2022/01/16 11:40:49;;;;;;;14.15;11.27;;;;;;;7.83;45.10;100507.69;5068952;28;20442;-56
2022/01/16 11:43:26;;;;;;;15.53;10.60;;;;;;;7.89;45.05;100508.78;5068235;28;20735;-57
2022/01/16 11:46:11;;;;;;;14.23;10.57;;;;;;;7.96;45.57;100507.38;5069012;28;20190;-56
2022/01/16 11:48:47;;;;;;;15.37;10.83;;;;;;;7.94;45.27;100507.31;5069466;28;20182;-56
2022/01/16 11:51:52;;;;;;;12.87;9.83;;;;;;;7.98;45.41;100504.09;5069967;28;20201;-57
2022/01/16 11:54:27;;;;;;;15.00;10.90;;;;;;;7.99;45.07;100502.41;5069796;28;20188;-57
2022/01/16 11:57:03;;;;;;;13.53;10.57;;;;;;;7.98;45.18;100498.09;5069656;28;20191;-56
2022/01/16 11:59:37;;;;;;;17.40;11.57;;;;;;;8.02;45.18;100488.03;5069560;28;20186;-57
2022/01/16 12:02:18;;;;;;;12.80;10.57;;;;;;;8.09;44.86;100492.63;5067362;28;20197;-57
2022/01/16 12:04:59;;;;;;;13.00;10.50;;;;;;;8.15;44.61;100481.75;5068768;28;20227;-56
2022/01/16 12:07:47;;;;;;;14.03;10.73;;;;;;;8.21;44.21;100490.53;5069120;28;20222;-56